createdAt,value
2017-11-17T00:00:28.052Z,5.29
2017-11-17T00:01:32.927Z,5.37
2017-11-17T00:02:37.718Z,5.47
2017-11-17T00:03:42.455Z,5.48
2017-11-17T00:04:47.066Z,5.59
2017-11-17T00:05:51.696Z,5.64
2017-11-17T00:06:56.616Z,5.70
2017-11-17T00:08:01.245Z,5.71
2017-11-17T00:09:06.113Z,5.69
2017-11-17T00:10:10.836Z,5.60
2017-11-17T00:11:15.606Z,5.52
2017-11-17T00:12:20.301Z,5.43
2017-11-17T00:13:25.274Z,5.48
2017-11-17T00:14:29.984Z,5.57
2017-11-17T00:15:34.687Z,5.53
2017-11-17T00:16:39.367Z,5.58
2017-11-17T00:17:44.079Z,5.33
2017-11-17T00:18:48.832Z,5.34
2017-11-17T00:19:53.837Z,5.50
2017-11-17T00:20:58.556Z,5.62
2017-11-17T00:22:03.314Z,5.63
2017-11-17T00:23:08.144Z,5.53
2017-11-17T00:24:12.901Z,5.54
2017-11-17T00:25:17.687Z,5.57
2017-11-17T00:26:22.831Z,5.44
2017-11-17T00:27:27.618Z,5.48
2017-11-17T00:28:32.382Z,5.64
2017-11-17T00:29:37.145Z,5.55
2017-11-17T00:30:41.976Z,5.39
2017-11-17T00:31:46.811Z,5.59
2017-11-17T00:32:51.906Z,5.64
2017-11-17T00:33:56.644Z,5.71
2017-11-17T00:35:01.494Z,5.74
2017-11-17T00:36:07.027Z,5.71
2017-11-17T00:37:11.813Z,5.57
2017-11-17T00:38:16.587Z,5.38
2017-11-17T00:39:21.688Z,5.47
2017-11-17T00:40:26.466Z,5.31
2017-11-17T00:41:31.284Z,5.21
2017-11-17T00:42:36.094Z,5.34
2017-11-17T00:43:40.884Z,5.62
2017-11-17T00:44:45.648Z,5.70
2017-11-17T00:45:50.626Z,5.79
2017-11-17T00:46:55.282Z,5.76
2017-11-17T00:47:59.953Z,5.73
2017-11-17T00:49:05.756Z,5.70
2017-11-17T00:50:10.495Z,5.77
2017-11-17T00:51:15.528Z,5.77
2017-11-17T00:52:20.235Z,5.87
2017-11-17T00:53:24.950Z,5.79
2017-11-17T00:54:29.568Z,5.82
2017-11-17T00:55:34.228Z,5.88
2017-11-17T00:56:38.925Z,5.87
2017-11-17T00:57:43.945Z,5.90
2017-11-17T00:58:48.623Z,5.87
2017-11-17T00:59:53.303Z,5.83
2017-11-17T01:00:58.058Z,5.80
2017-11-17T01:02:02.761Z,5.88
2017-11-17T01:03:07.457Z,5.85
2017-11-17T01:04:12.442Z,5.84
2017-11-17T01:05:17.104Z,5.89
2017-11-17T01:06:21.870Z,5.81
2017-11-17T01:07:26.550Z,5.70
2017-11-17T01:08:31.257Z,5.54
2017-11-17T01:09:36.134Z,5.62
2017-11-17T01:10:41.031Z,5.59
2017-11-17T01:11:45.728Z,5.52
2017-11-17T01:12:50.419Z,5.54
2017-11-17T01:13:55.198Z,5.66
2017-11-17T01:14:59.950Z,5.65
2017-11-17T01:16:04.900Z,5.51
2017-11-17T01:17:10.759Z,5.59
2017-11-17T01:18:15.515Z,5.53
2017-11-17T01:19:20.221Z,5.60
2017-11-17T01:20:24.865Z,5.62
2017-11-17T01:21:29.449Z,5.49
2017-11-17T01:22:34.065Z,5.36
2017-11-17T01:23:39.084Z,5.29
2017-11-17T01:24:43.880Z,5.45
2017-11-17T01:25:48.676Z,5.29
2017-11-17T01:26:53.377Z,5.22
2017-11-17T01:27:58.060Z,5.38
2017-11-17T01:29:02.757Z,5.60
2017-11-17T01:30:07.726Z,5.61
2017-11-17T01:31:12.439Z,5.58
2017-11-17T01:32:17.109Z,5.58
2017-11-17T01:33:21.796Z,5.42
2017-11-17T01:34:26.466Z,5.50
2017-11-17T01:35:31.169Z,5.52
2017-11-17T01:36:36.756Z,5.62
2017-11-17T01:37:41.435Z,5.63
2017-11-17T01:38:46.221Z,5.58
2017-11-17T01:39:50.955Z,5.36
2017-11-17T01:40:55.655Z,5.39
2017-11-17T01:42:00.335Z,5.44
2017-11-17T01:43:05.315Z,5.42
2017-11-17T01:44:09.991Z,5.41
2017-11-17T01:45:15.072Z,5.27
2017-11-17T01:46:19.745Z,5.25
2017-11-17T01:47:24.446Z,5.28
2017-11-17T01:48:29.122Z,5.04
2017-11-17T01:49:34.098Z,5.07
2017-11-17T01:50:38.761Z,5.11
2017-11-17T01:51:43.440Z,5.23
2017-11-17T01:52:48.121Z,5.26
2017-11-17T01:53:53.012Z,5.32
2017-11-17T01:54:57.672Z,5.37
2017-11-17T01:56:02.695Z,5.36
2017-11-17T01:57:07.368Z,5.37
2017-11-17T01:58:12.057Z,5.38
2017-11-17T01:59:16.752Z,5.29
2017-11-17T02:16:28.639Z,5.44
2017-11-17T02:17:33.425Z,5.49
2017-11-17T02:18:38.186Z,5.55
2017-11-17T02:19:42.955Z,5.63
2017-11-17T02:20:47.788Z,5.60
2017-11-17T02:21:52.843Z,5.61
2017-11-17T02:22:57.671Z,5.84
2017-11-17T02:24:02.436Z,5.81
2017-11-17T02:25:07.191Z,5.82
2017-11-17T02:26:11.975Z,5.77
2017-11-17T02:27:16.772Z,5.58
2017-11-17T02:28:22.011Z,5.56
2017-11-17T02:29:26.779Z,5.55
2017-11-17T02:30:31.590Z,5.61
2017-11-17T02:31:36.371Z,5.52
2017-11-17T02:32:47.753Z,5.61
2017-11-17T02:33:52.383Z,5.64
2017-11-17T02:34:57.380Z,5.64
2017-11-17T02:36:02.163Z,5.73
2017-11-17T02:37:06.959Z,5.78
2017-11-17T02:38:12.583Z,5.78
2017-11-17T02:39:17.425Z,5.82
2017-11-17T02:40:22.217Z,5.89
2017-11-17T02:41:27.306Z,5.86
2017-11-17T02:42:32.076Z,5.79
2017-11-17T02:43:36.854Z,5.72
2017-11-17T02:44:42.577Z,5.75
2017-11-17T02:45:47.367Z,5.70
2017-11-17T02:46:53.313Z,5.73
2017-11-17T02:47:58.314Z,5.78
2017-11-17T02:49:03.055Z,5.97
2017-11-17T02:50:08.049Z,5.98
2017-11-17T02:51:13.250Z,5.94
2017-11-17T02:52:18.092Z,5.98
2017-11-17T02:53:23.201Z,5.90
2017-11-17T02:54:29.185Z,5.84
2017-11-17T02:55:33.967Z,5.79
2017-11-17T02:56:38.767Z,5.80
2017-11-17T02:57:43.557Z,5.90
2017-11-17T02:58:48.375Z,5.92
2017-11-17T02:59:53.462Z,5.88
2017-11-17T03:00:58.296Z,5.87
2017-11-17T03:02:03.199Z,5.87
2017-11-17T03:03:08.002Z,5.87
2017-11-17T03:04:12.655Z,5.92
2017-11-17T03:05:17.299Z,5.92
2017-11-17T03:06:22.394Z,5.86
2017-11-17T03:07:28.348Z,5.83
2017-11-17T03:08:33.197Z,5.77
2017-11-17T03:09:39.659Z,5.84
2017-11-17T03:10:44.475Z,5.87
2017-11-17T03:11:49.046Z,5.87
2017-11-17T03:12:54.257Z,5.88
2017-11-17T03:13:58.912Z,5.82
2017-11-17T03:15:03.591Z,5.85
2017-11-17T03:16:08.266Z,5.91
2017-11-17T03:17:12.924Z,5.80
2017-11-17T03:18:17.569Z,5.65
2017-11-17T03:19:22.626Z,5.72
2017-11-17T03:20:27.279Z,5.76
2017-11-17T03:21:31.961Z,5.89
2017-11-17T03:22:36.628Z,5.91
2017-11-17T03:23:41.258Z,5.88
2017-11-17T03:24:45.948Z,5.84
2017-11-17T03:25:51.356Z,5.81
2017-11-17T03:26:57.462Z,5.84
2017-11-17T03:28:02.103Z,5.85
2017-11-17T03:29:06.794Z,5.87
2017-11-17T03:30:11.479Z,5.81
2017-11-17T03:31:16.187Z,5.81
2017-11-17T03:32:21.550Z,5.85
2017-11-17T03:33:26.353Z,5.82
2017-11-17T03:34:31.136Z,5.90
2017-11-17T03:35:37.860Z,5.78
2017-11-17T03:36:42.639Z,5.76
2017-11-17T03:37:48.969Z,5.72
2017-11-17T03:38:54.049Z,5.67
2017-11-17T03:39:58.857Z,5.58
2017-11-17T03:41:03.680Z,5.62
2017-11-17T03:42:08.354Z,5.57
2017-11-17T03:43:13.014Z,5.46
2017-11-17T03:44:17.953Z,5.32
2017-11-17T03:45:22.960Z,5.40
2017-11-17T03:46:27.796Z,5.43
2017-11-17T03:47:32.615Z,5.47
2017-11-17T03:48:37.320Z,5.40
2017-11-17T03:49:42.142Z,5.51
2017-11-17T03:50:46.783Z,5.73
2017-11-17T03:51:51.754Z,5.79
2017-11-17T03:52:56.423Z,5.80
2017-11-17T03:54:01.224Z,5.83
2017-11-17T03:55:06.977Z,5.92
2017-11-17T03:56:11.782Z,5.92
2017-11-17T03:57:16.566Z,5.86
2017-11-17T03:58:21.636Z,6.01
2017-11-17T03:59:26.683Z,6.08
2017-11-17T04:00:31.647Z,6.07
2017-11-17T04:01:36.641Z,6.05
2017-11-17T04:02:42.752Z,5.95
2017-11-17T04:03:47.834Z,5.91
2017-11-17T04:04:52.629Z,5.96
2017-11-17T04:05:57.385Z,5.92
2017-11-17T04:07:02.488Z,6.02
2017-11-17T04:08:07.345Z,6.05
2017-11-17T04:09:12.282Z,5.91
2017-11-17T04:10:17.427Z,5.89
2017-11-17T04:11:22.362Z,5.85
2017-11-17T04:12:27.358Z,5.95
2017-11-17T04:13:32.153Z,6.07
2017-11-17T04:14:36.985Z,5.91
2017-11-17T04:15:41.782Z,5.85
2017-11-17T04:16:46.865Z,5.89
2017-11-17T04:17:51.692Z,5.85
2017-11-17T04:18:56.522Z,5.89
2017-11-17T04:20:01.331Z,5.85
2017-11-17T04:21:06.102Z,5.83
2017-11-17T04:22:10.874Z,5.82
2017-11-17T04:23:15.946Z,5.65
2017-11-17T04:24:20.701Z,5.71
2017-11-17T04:25:25.491Z,5.74
2017-11-17T04:26:30.271Z,5.74
2017-11-17T04:27:35.042Z,5.78
2017-11-17T04:28:39.757Z,5.84
2017-11-17T04:29:44.925Z,5.72
2017-11-17T04:30:49.751Z,5.62
2017-11-17T04:31:54.671Z,5.75
2017-11-17T04:32:59.465Z,5.90
2017-11-17T04:34:05.184Z,5.91
2017-11-17T04:35:10.020Z,5.97
2017-11-17T04:36:15.178Z,5.74
2017-11-17T04:37:20.012Z,5.79
2017-11-17T04:38:24.833Z,5.79
2017-11-17T04:39:29.608Z,5.88
2017-11-17T04:40:34.443Z,5.85
2017-11-17T04:41:39.252Z,5.97
2017-11-17T04:42:44.442Z,6.00
2017-11-17T04:43:49.291Z,5.88
2017-11-17T04:44:54.062Z,5.94
2017-11-17T04:45:58.900Z,5.83
2017-11-17T04:47:03.723Z,5.82
2017-11-17T04:48:08.624Z,5.91
2017-11-17T04:49:13.691Z,5.88
2017-11-17T04:50:18.532Z,5.93
2017-11-17T04:51:23.341Z,5.97
2017-11-17T04:52:28.154Z,5.92
2017-11-17T04:53:32.932Z,5.83
2017-11-17T04:54:37.874Z,5.90
2017-11-17T04:55:42.998Z,5.88
2017-11-17T04:56:47.853Z,5.83
2017-11-17T04:57:52.978Z,5.85
2017-11-17T04:58:57.860Z,5.89
2017-11-17T05:00:02.696Z,5.88
2017-11-17T05:15:07.028Z,5.94
2017-11-17T05:16:11.976Z,5.97
2017-11-17T05:17:16.566Z,5.96
2017-11-17T05:18:21.275Z,5.93
2017-11-17T05:19:26.047Z,6.05
2017-11-17T05:20:31.025Z,5.98
2017-11-17T05:21:35.792Z,5.83
2017-11-17T05:22:40.553Z,5.69
2017-11-17T05:23:45.290Z,5.76
2017-11-17T05:24:50.009Z,5.74
2017-11-17T05:25:54.961Z,5.78
2017-11-17T05:27:00.023Z,5.75
2017-11-17T05:28:05.811Z,5.75
2017-11-17T05:29:10.540Z,5.69
2017-11-17T05:30:15.250Z,5.66
2017-11-17T05:31:19.962Z,5.77
2017-11-17T05:32:24.716Z,5.65
2017-11-17T05:33:29.745Z,5.61
2017-11-17T05:34:34.462Z,5.67
2017-11-17T05:35:39.182Z,5.58
2017-11-17T05:36:43.969Z,5.50
2017-11-17T05:37:48.687Z,5.51
2017-11-17T05:38:53.493Z,5.75
2017-11-17T05:39:58.785Z,5.91
2017-11-17T05:41:03.536Z,5.86
2017-11-17T05:42:08.336Z,5.84
2017-11-17T05:43:13.084Z,5.82
2017-11-17T05:44:17.805Z,5.82
2017-11-17T05:45:22.527Z,5.75
2017-11-17T05:46:27.838Z,5.71
2017-11-17T05:47:32.549Z,5.74
2017-11-17T05:48:37.273Z,5.70
2017-11-17T05:49:42.051Z,5.75
2017-11-17T05:50:46.784Z,5.76
2017-11-17T05:51:51.534Z,5.80
2017-11-17T05:52:56.528Z,5.71
2017-11-17T05:54:01.307Z,5.81
2017-11-17T05:55:06.093Z,5.79
2017-11-17T05:56:10.885Z,5.85
2017-11-17T05:57:15.678Z,5.96
2017-11-17T05:58:20.412Z,6.11
2017-11-17T05:59:25.450Z,6.08
2017-11-17T06:00:30.159Z,6.10
2017-11-17T06:01:34.963Z,5.94
2017-11-17T06:02:39.726Z,5.91
2017-11-17T06:03:44.603Z,5.84
2017-11-17T06:04:49.773Z,5.74
2017-11-17T06:05:54.949Z,5.77
2017-11-17T06:06:59.861Z,5.82
2017-11-17T06:08:04.723Z,5.81
2017-11-17T06:09:09.637Z,5.85
2017-11-17T06:10:14.513Z,5.78
2017-11-17T06:11:19.367Z,5.82
2017-11-17T06:12:24.596Z,5.77
2017-11-17T06:13:29.388Z,5.86
2017-11-17T06:14:34.223Z,5.96
2017-11-17T06:15:39.098Z,5.93
2017-11-17T06:16:43.950Z,6.00
2017-11-17T06:17:48.797Z,6.08
2017-11-17T06:18:53.924Z,6.04
2017-11-17T06:19:58.759Z,6.04
2017-11-17T06:21:03.566Z,5.94
2017-11-17T06:22:08.381Z,5.94
2017-11-17T06:23:13.200Z,5.96
2017-11-17T06:24:18.050Z,6.04
2017-11-17T06:25:23.374Z,5.97
2017-11-17T06:26:28.214Z,5.76
2017-11-17T06:27:33.519Z,5.82
2017-11-17T06:28:38.359Z,5.90
2017-11-17T06:29:43.282Z,5.83
2017-11-17T06:30:48.108Z,5.90
2017-11-17T06:31:53.273Z,5.95
2017-11-17T06:32:58.119Z,5.94
2017-11-17T06:34:02.949Z,5.90
2017-11-17T06:35:07.774Z,5.89
2017-11-17T06:36:12.605Z,5.95
2017-11-17T06:37:17.424Z,6.14
2017-11-17T06:38:22.665Z,6.01
2017-11-17T06:39:27.468Z,5.87
2017-11-17T06:40:32.205Z,5.82
2017-11-17T06:41:36.921Z,5.75
2017-11-17T06:42:41.759Z,5.78
2017-11-17T06:43:46.624Z,5.77
2017-11-17T06:44:51.786Z,5.79
2017-11-17T06:45:56.640Z,5.78
2017-11-17T06:47:01.477Z,5.68
2017-11-17T06:48:06.330Z,5.67
2017-11-17T06:49:11.232Z,5.75
2017-11-17T06:50:16.427Z,5.83
2017-11-17T06:51:21.556Z,5.95
2017-11-17T06:52:26.518Z,6.02
2017-11-17T06:53:31.413Z,5.98
2017-11-17T06:54:36.272Z,6.10
2017-11-17T06:55:41.089Z,6.14
2017-11-17T06:56:45.917Z,6.03
2017-11-17T06:57:51.052Z,6.11
2017-11-17T06:58:55.915Z,6.10
2017-11-17T07:00:00.697Z,6.15
2017-11-17T07:01:05.689Z,6.17
2017-11-17T07:02:10.508Z,6.12
2017-11-17T07:03:15.253Z,6.07
2017-11-17T07:04:20.375Z,6.18
2017-11-17T07:05:25.081Z,6.24
2017-11-17T07:06:29.859Z,6.28
2017-11-17T07:07:34.634Z,6.10
2017-11-17T07:08:39.365Z,6.06
2017-11-17T07:09:44.076Z,6.08
2017-11-17T07:10:49.091Z,6.04
2017-11-17T07:11:53.959Z,6.11
2017-11-17T07:12:58.843Z,6.14
2017-11-17T07:14:03.778Z,6.21
2017-11-17T07:15:08.705Z,6.16
2017-11-17T07:16:13.602Z,6.22
2017-11-17T07:17:18.805Z,6.28
2017-11-17T07:18:23.618Z,6.24
2017-11-17T07:19:28.466Z,6.20
2017-11-17T07:20:33.308Z,6.11
2017-11-17T07:21:38.109Z,6.01
2017-11-17T07:22:42.987Z,6.12
2017-11-17T07:23:48.513Z,5.99
2017-11-17T07:24:53.398Z,6.00
2017-11-17T07:25:58.276Z,5.98
2017-11-17T07:27:03.148Z,6.00
2017-11-17T07:28:08.003Z,6.09
2017-11-17T07:29:12.791Z,5.94
2017-11-17T07:30:17.883Z,5.97
2017-11-17T07:31:22.665Z,5.81
2017-11-17T07:32:27.420Z,5.90
2017-11-17T07:33:32.195Z,5.98
2017-11-17T07:34:36.943Z,6.09
2017-11-17T07:35:41.719Z,6.15
2017-11-17T07:36:46.514Z,6.21
2017-11-17T07:37:51.744Z,6.29
2017-11-17T07:38:56.517Z,6.27
2017-11-17T07:40:01.409Z,6.14
2017-11-17T07:41:06.184Z,5.84
2017-11-17T07:42:11.302Z,5.95
2017-11-17T07:43:16.105Z,6.02
2017-11-17T07:44:20.847Z,6.04
2017-11-17T07:45:25.564Z,6.03
2017-11-17T07:46:30.329Z,6.07
2017-11-17T07:47:35.049Z,6.11
2017-11-17T07:48:40.170Z,6.07
2017-11-17T07:49:44.877Z,6.01
2017-11-17T07:50:49.790Z,6.01
2017-11-17T07:51:54.601Z,6.09
2017-11-17T07:52:59.264Z,6.07
2017-11-17T07:54:03.969Z,5.99
2017-11-17T07:55:09.125Z,5.96
2017-11-17T07:56:14.042Z,5.90
2017-11-17T07:57:18.856Z,6.01
2017-11-17T07:58:24.400Z,6.16
2017-11-17T07:59:29.167Z,6.20
2017-11-17T08:00:33.992Z,6.20
2017-11-17T08:01:38.752Z,6.19
2017-11-17T08:02:43.599Z,6.17
2017-11-17T08:03:49.767Z,6.18
2017-11-17T08:04:54.706Z,6.17
2017-11-17T08:05:59.688Z,6.19
2017-11-17T08:07:04.780Z,6.39
2017-11-17T08:08:09.627Z,6.38
2017-11-17T08:09:14.422Z,6.30
2017-11-17T08:10:19.259Z,6.27
2017-11-17T08:11:24.095Z,6.15
2017-11-17T08:12:28.889Z,6.17
2017-11-17T08:13:34.046Z,6.18
2017-11-17T08:30:40.381Z,5.99
2017-11-17T08:31:45.479Z,6.00
2017-11-17T08:32:50.255Z,5.99
2017-11-17T08:33:55.486Z,6.01
2017-11-17T08:35:00.250Z,5.93
2017-11-17T08:36:05.421Z,6.04
2017-11-17T08:37:10.266Z,6.02
2017-11-17T08:38:15.041Z,6.00
2017-11-17T08:39:19.795Z,6.05
2017-11-17T08:40:24.616Z,5.94
2017-11-17T08:41:29.413Z,6.05
2017-11-17T08:42:34.471Z,6.11
2017-11-17T08:43:39.324Z,6.15
2017-11-17T08:44:44.077Z,6.18
2017-11-17T08:45:49.202Z,6.09
2017-11-17T08:46:53.940Z,5.99
2017-11-17T08:47:59.128Z,6.13
2017-11-17T08:49:04.001Z,6.23
2017-11-17T08:50:08.646Z,6.25
2017-11-17T08:51:13.216Z,6.29
2017-11-17T08:52:17.821Z,6.34
2017-11-17T08:53:22.439Z,6.56
2017-11-17T08:54:27.184Z,6.53
2017-11-17T08:55:32.298Z,6.54
2017-11-17T08:56:37.111Z,6.53
2017-11-17T08:57:41.873Z,6.49
2017-11-17T08:58:46.629Z,6.55
2017-11-17T08:59:51.374Z,6.39
2017-11-17T09:00:56.155Z,6.43
2017-11-17T09:02:01.308Z,6.49
2017-11-17T09:03:06.960Z,6.54
2017-11-17T09:04:12.429Z,6.41
2017-11-17T09:05:17.287Z,6.44
2017-11-17T09:06:22.242Z,6.35
2017-11-17T09:07:27.162Z,6.54
2017-11-17T09:08:32.345Z,6.50
2017-11-17T09:09:37.243Z,6.42
2017-11-17T09:10:42.257Z,6.32
2017-11-17T09:11:47.019Z,6.23
2017-11-17T09:12:51.963Z,6.34
2017-11-17T09:13:56.816Z,6.25
2017-11-17T09:15:02.153Z,6.10
2017-11-17T09:16:06.963Z,6.13
2017-11-17T09:17:11.790Z,6.24
2017-11-17T09:18:16.662Z,6.25
2017-11-17T09:19:21.509Z,6.20
2017-11-17T09:20:26.917Z,6.27
2017-11-17T09:21:32.156Z,6.39
2017-11-17T09:22:36.984Z,6.45
2017-11-17T09:23:41.814Z,6.48
2017-11-17T09:24:47.053Z,6.55
2017-11-17T09:25:51.984Z,6.68
2017-11-17T09:26:56.872Z,6.44
2017-11-17T09:28:02.121Z,6.51
2017-11-17T09:29:07.050Z,6.43
2017-11-17T09:30:12.433Z,6.38
2017-11-17T09:31:17.331Z,6.55
2017-11-17T09:32:22.252Z,6.53
2017-11-17T09:33:27.162Z,6.52
2017-11-17T09:34:32.423Z,6.57
2017-11-17T09:35:37.310Z,6.54
2017-11-17T09:36:42.324Z,6.51
2017-11-17T09:37:47.169Z,6.68
2017-11-17T09:38:52.034Z,6.56
2017-11-17T09:39:56.894Z,6.62
2017-11-17T09:41:02.267Z,6.61
2017-11-17T09:42:07.539Z,6.75
2017-11-17T09:43:12.396Z,6.92
2017-11-17T09:44:17.218Z,7.02
2017-11-17T09:45:22.056Z,7.30
2017-11-17T09:46:27.465Z,7.15
2017-11-17T09:47:32.856Z,7.08
2017-11-17T09:48:37.726Z,7.06
2017-11-17T09:49:42.606Z,6.99
2017-11-17T09:50:47.438Z,6.96
2017-11-17T09:51:52.326Z,6.98
2017-11-17T09:52:57.604Z,7.03
2017-11-17T09:54:02.895Z,7.26
2017-11-17T09:55:07.790Z,7.17
2017-11-17T09:56:12.929Z,7.01
2017-11-17T09:57:19.455Z,7.11
2017-11-17T09:58:24.396Z,6.80
2017-11-17T09:59:29.321Z,6.92
2017-11-17T10:00:34.520Z,7.01
2017-11-17T10:01:39.328Z,6.88
2017-11-17T10:02:44.296Z,6.79
2017-11-17T10:03:49.109Z,6.93
2017-11-17T10:04:53.965Z,7.00
2017-11-17T10:05:58.711Z,7.04
2017-11-17T10:07:03.844Z,7.13
2017-11-17T10:08:08.743Z,7.11
2017-11-17T10:09:13.580Z,7.13
2017-11-17T10:10:18.349Z,7.10
2017-11-17T10:11:23.161Z,7.09
2017-11-17T10:12:27.925Z,7.14
2017-11-17T10:13:33.139Z,7.20
2017-11-17T10:14:37.942Z,7.44
2017-11-17T10:16:57.764Z,7.59
2017-11-17T10:18:02.522Z,7.50
2017-11-17T10:19:07.312Z,7.26
2017-11-17T10:20:12.564Z,7.51
2017-11-17T10:21:17.341Z,7.57
2017-11-17T10:22:22.114Z,7.55
2017-11-17T10:24:50.206Z,7.94
2017-11-17T10:25:55.142Z,7.97
2017-11-17T10:26:59.950Z,7.70
2017-11-17T10:28:04.677Z,7.83
2017-11-17T10:29:10.178Z,7.87
2017-11-17T10:30:15.084Z,7.98
2017-11-17T10:31:20.292Z,8.05
2017-11-17T10:32:24.961Z,8.01
2017-11-17T10:33:29.693Z,7.93
2017-11-17T10:34:34.547Z,7.76
2017-11-17T10:35:40.313Z,7.74
2017-11-17T10:36:45.491Z,8.09
2017-11-17T10:37:50.235Z,8.66
2017-11-17T10:38:56.152Z,8.41
2017-11-17T10:40:00.921Z,8.10
2017-11-17T10:41:06.864Z,7.92
2017-11-17T10:42:12.897Z,7.82
2017-11-17T10:43:17.986Z,7.87
2017-11-17T10:44:22.602Z,8.03
2017-11-17T10:45:29.598Z,7.89
2017-11-17T10:46:35.821Z,7.86
2017-11-17T10:47:40.542Z,7.68
2017-11-17T10:48:45.373Z,7.74
2017-11-17T10:49:50.977Z,7.97
2017-11-17T10:50:55.817Z,7.92
2017-11-17T10:52:00.764Z,8.06
2017-11-17T10:53:06.297Z,7.58
2017-11-17T10:54:11.179Z,7.76
2017-11-17T10:55:16.016Z,7.85
2017-11-17T10:56:34.955Z,7.81
2017-11-17T10:57:39.707Z,8.02
2017-11-17T10:58:44.433Z,7.96
2017-11-17T11:15:36.798Z,7.71
2017-11-17T11:16:42.067Z,8.03
2017-11-17T11:17:48.391Z,8.07
2017-11-17T11:18:53.629Z,8.06
2017-11-17T11:19:58.515Z,7.95
2017-11-17T11:21:03.660Z,7.96
2017-11-17T11:22:08.434Z,8.06
2017-11-17T11:23:13.186Z,8.00
2017-11-17T11:24:17.990Z,7.95
2017-11-17T11:25:22.860Z,7.96
2017-11-17T11:26:27.663Z,8.12
2017-11-17T11:27:32.694Z,8.14
2017-11-17T11:28:37.408Z,8.00
2017-11-17T11:29:42.514Z,7.87
2017-11-17T11:30:47.334Z,7.92
2017-11-17T11:31:52.126Z,7.98
2017-11-17T11:32:56.913Z,8.11
2017-11-17T11:34:02.213Z,7.89
2017-11-17T11:35:07.099Z,7.86
2017-11-17T11:36:12.004Z,7.97
2017-11-17T11:37:16.877Z,7.84
2017-11-17T11:38:21.702Z,7.90
2017-11-17T11:39:27.248Z,7.84
2017-11-17T11:40:32.527Z,7.89
2017-11-17T11:41:38.203Z,7.90
2017-11-17T11:42:43.108Z,7.95
2017-11-17T11:43:47.891Z,7.91
2017-11-17T11:44:52.714Z,8.10
2017-11-17T11:45:57.601Z,8.03
2017-11-17T11:47:02.891Z,8.03
2017-11-17T11:48:07.765Z,8.03
2017-11-17T11:49:12.525Z,8.14
2017-11-17T11:50:17.325Z,8.09
2017-11-17T11:51:22.282Z,8.11
2017-11-17T11:52:27.140Z,8.06
2017-11-17T11:53:32.524Z,8.01
2017-11-17T11:54:37.326Z,8.10
2017-11-17T11:55:42.180Z,8.07
2017-11-17T11:56:47.366Z,8.14
2017-11-17T11:57:53.102Z,8.11
2017-11-17T11:58:58.551Z,8.17
2017-11-17T12:00:04.655Z,8.17
2017-11-17T12:01:09.966Z,8.17
2017-11-17T12:02:14.773Z,8.34
2017-11-17T12:03:19.557Z,8.33
2017-11-17T12:04:24.537Z,8.26
2017-11-17T12:05:29.309Z,8.20
2017-11-17T12:06:34.092Z,8.12
2017-11-17T12:07:39.659Z,8.24
2017-11-17T12:08:44.873Z,8.11
2017-11-17T12:09:51.478Z,8.22
2017-11-17T12:10:56.239Z,8.30
2017-11-17T12:12:01.433Z,8.42
2017-11-17T12:13:06.200Z,8.49
2017-11-17T12:14:12.211Z,8.39
2017-11-17T12:15:18.031Z,8.35
2017-11-17T12:16:23.712Z,8.21
2017-11-17T12:17:28.529Z,8.25
2017-11-17T12:18:35.614Z,8.46
2017-11-17T12:19:41.337Z,8.43
2017-11-17T12:20:46.822Z,8.35
2017-11-17T12:21:51.752Z,8.40
2017-11-17T12:22:57.060Z,8.33
2017-11-17T12:24:02.905Z,8.39
2017-11-17T12:25:07.887Z,8.27
2017-11-17T12:26:13.731Z,8.35
2017-11-17T12:27:18.604Z,8.34
2017-11-17T12:28:24.400Z,8.35
2017-11-17T12:29:29.505Z,8.36
2017-11-17T12:30:34.237Z,8.29
2017-11-17T12:31:39.093Z,8.45
2017-11-17T12:32:43.889Z,8.66
2017-11-17T12:33:48.669Z,8.78
2017-11-17T12:34:53.442Z,8.44
2017-11-17T12:35:58.484Z,8.43
2017-11-17T12:37:03.408Z,8.43
2017-11-17T12:38:08.273Z,8.49
2017-11-17T12:39:13.153Z,8.44
2017-11-17T12:40:18.320Z,8.54
2017-11-17T12:41:23.769Z,8.77
2017-11-17T12:42:29.086Z,8.93
2017-11-17T12:43:33.985Z,8.95
2017-11-17T12:44:39.781Z,8.58
2017-11-17T12:45:44.728Z,9.11
2017-11-17T12:46:49.579Z,8.91
2017-11-17T12:47:56.609Z,8.91
2017-11-17T12:49:01.402Z,8.86
2017-11-17T12:50:06.214Z,8.82
2017-11-17T12:51:11.177Z,8.85
2017-11-17T12:52:16.099Z,8.88
2017-11-17T12:53:20.990Z,8.96
2017-11-17T12:54:25.729Z,8.87
2017-11-17T12:55:30.906Z,9.09
2017-11-17T12:56:36.514Z,8.87
2017-11-17T12:57:41.314Z,8.95
2017-11-17T12:58:46.438Z,9.02
2017-11-17T12:59:51.451Z,8.85
2017-11-17T13:00:56.277Z,8.70
2017-11-17T13:02:01.694Z,8.86
2017-11-17T13:03:06.511Z,8.74
2017-11-17T13:04:12.551Z,8.72
2017-11-17T13:05:17.297Z,8.79
2017-11-17T13:06:22.374Z,8.91
2017-11-17T13:07:28.465Z,8.80
2017-11-17T13:08:33.412Z,8.65
2017-11-17T13:09:38.299Z,8.59
2017-11-17T13:10:43.215Z,8.61
2017-11-17T13:11:47.979Z,8.64
2017-11-17T13:12:52.908Z,8.68
2017-11-17T13:13:57.749Z,8.57
2017-11-17T13:15:02.889Z,8.67
2017-11-17T13:16:07.750Z,8.63
2017-11-17T13:17:12.722Z,8.53
2017-11-17T13:18:18.024Z,8.61
2017-11-17T13:19:23.434Z,8.49
2017-11-17T13:20:28.251Z,8.56
2017-11-17T13:21:33.532Z,8.60
2017-11-17T13:22:38.291Z,8.53
2017-11-17T13:23:43.081Z,8.56
2017-11-17T13:24:48.390Z,8.60
2017-11-17T13:25:53.289Z,8.68
2017-11-17T13:26:59.021Z,8.60
2017-11-17T13:28:04.442Z,8.48
2017-11-17T13:29:09.281Z,8.43
2017-11-17T13:34:18.778Z,8.44
2017-11-17T13:35:24.158Z,8.58
2017-11-17T13:36:29.081Z,8.41
2017-11-17T13:37:34.044Z,8.41
2017-11-17T13:38:38.973Z,8.43
2017-11-17T13:39:43.886Z,8.48
2017-11-17T13:40:48.991Z,8.50
2017-11-17T13:41:54.060Z,8.49
2017-11-17T13:42:58.907Z,8.44
2017-11-17T13:44:03.891Z,8.46
2017-11-17T13:45:08.728Z,8.49
2017-11-17T13:46:13.530Z,8.68
2017-11-17T13:47:18.790Z,8.55
2017-11-17T13:48:24.111Z,8.63
2017-11-17T13:49:29.083Z,8.74
2017-11-17T13:50:33.863Z,8.60
2017-11-17T13:51:39.306Z,8.81
2017-11-17T13:52:44.162Z,8.85
2017-11-17T13:53:49.042Z,8.83
2017-11-17T13:54:54.038Z,8.83
2017-11-17T13:55:58.876Z,8.64
2017-11-17T13:57:03.855Z,8.55
2017-11-17T14:16:37.044Z,8.09
2017-11-17T14:17:42.825Z,8.05
2017-11-17T14:18:49.244Z,8.07
2017-11-17T14:19:55.128Z,8.01
2017-11-17T14:21:00.704Z,8.09
2017-11-17T14:22:06.584Z,8.31
2017-11-17T14:23:13.018Z,7.92
2017-11-17T14:24:18.071Z,8.02
2017-11-17T14:25:23.368Z,7.96
2017-11-17T14:26:28.580Z,7.83
2017-11-17T14:27:34.832Z,7.76
2017-11-17T14:28:40.888Z,7.96
2017-11-17T14:29:46.630Z,7.92
2017-11-17T14:30:52.654Z,7.89
2017-11-17T14:31:59.643Z,7.92
2017-11-17T14:33:06.346Z,7.82
2017-11-17T14:34:12.800Z,7.91
2017-11-17T14:35:20.962Z,7.91
2017-11-17T14:36:28.010Z,7.84
2017-11-17T14:37:33.789Z,7.90
2017-11-17T14:38:41.964Z,7.74
2017-11-17T14:39:47.378Z,7.65
2017-11-17T14:40:53.474Z,7.81
2017-11-17T14:41:59.011Z,7.98
2017-11-17T14:43:04.366Z,8.03
2017-11-17T14:44:11.203Z,7.79
2017-11-17T14:45:16.674Z,7.76
2017-11-17T14:46:22.294Z,7.73
2017-11-17T14:47:27.800Z,7.82
2017-11-17T14:48:33.602Z,7.69
2017-11-17T14:49:38.883Z,7.61
2017-11-17T14:50:44.533Z,7.67
2017-11-17T14:51:50.592Z,7.75
2017-11-17T14:52:56.999Z,7.79
2017-11-17T14:54:03.295Z,7.73
2017-11-17T14:55:09.247Z,7.62
2017-11-17T14:56:14.777Z,7.67
2017-11-17T14:57:20.760Z,7.72
2017-11-17T14:58:27.839Z,7.66
2017-11-17T14:59:34.261Z,7.52
2017-11-17T15:00:41.377Z,7.56
2017-11-17T15:01:49.233Z,7.49
2017-11-17T15:02:56.456Z,7.47
2017-11-17T15:04:02.626Z,7.44
2017-11-17T15:05:10.309Z,7.37
2017-11-17T15:06:17.761Z,7.26
2017-11-17T15:07:25.088Z,7.18
2017-11-17T15:08:33.706Z,7.13
2017-11-17T15:09:40.507Z,7.21
2017-11-17T15:10:46.298Z,7.26
2017-11-17T15:11:52.425Z,7.30
2017-11-17T15:12:59.320Z,7.28
2017-11-17T15:14:05.536Z,7.28
2017-11-17T15:15:11.910Z,7.16
2017-11-17T15:16:18.517Z,7.11
2017-11-17T15:17:25.995Z,7.05
2017-11-17T15:18:31.468Z,7.12
2017-11-17T15:19:38.836Z,6.91
2017-11-17T15:20:45.840Z,7.01
2017-11-17T15:21:51.933Z,7.03
2017-11-17T15:22:57.814Z,7.01
2017-11-17T15:24:04.290Z,7.03
2017-11-17T15:25:11.139Z,6.98
2017-11-17T15:26:18.283Z,6.99
2017-11-17T15:27:24.705Z,6.97
2017-11-17T15:28:30.497Z,6.98
2017-11-17T15:29:36.189Z,7.02
2017-11-17T15:30:44.252Z,6.96
2017-11-17T15:31:51.738Z,6.91
2017-11-17T15:32:58.691Z,6.87
2017-11-17T15:34:04.165Z,6.88
2017-11-17T15:35:10.822Z,6.84
2017-11-17T15:36:16.457Z,6.84
2017-11-17T15:37:21.650Z,6.68
2017-11-17T15:38:28.155Z,6.49
2017-11-17T15:39:35.036Z,6.35
2017-11-17T15:40:40.145Z,6.26
2017-11-17T15:41:45.402Z,6.21
2017-11-17T15:42:51.634Z,6.14
2017-11-17T15:43:56.977Z,6.12
2017-11-17T15:45:04.033Z,6.12
2017-11-17T15:46:10.531Z,6.17
2017-11-17T15:47:17.166Z,6.18
2017-11-17T15:48:23.496Z,6.29
2017-11-17T15:49:30.076Z,6.32
2017-11-17T15:50:36.572Z,6.31
2017-11-17T15:51:43.138Z,6.35
2017-11-17T15:52:50.359Z,6.37
2017-11-17T15:53:56.998Z,6.40